sensor_id;sensor_type;location;lat;lon;timestamp;P1;durP1;ratioP1;P2;durP2;ratioP2
69188;SDS011;56302;52.322;5.926;2022-11-11T00:01:05;14.43;;;6.38;;
69188;SDS011;56302;52.322;5.926;2022-11-11T00:03:37;16.95;;;7.05;;
69188;SDS011;56302;52.322;5.926;2022-11-11T00:06:03;14.40;;;6.43;;
69188;SDS011;56302;52.322;5.926;2022-11-11T00:08:30;14.00;;;6.47;;
69188;SDS011;56302;52.322;5.926;2022-11-11T00:11:03;17.17;;;6.82;;
69188;SDS011;56302;52.322;5.926;2022-11-11T00:13:33;17.02;;;7.40;;
69188;SDS011;56302;52.322;5.926;2022-11-11T00:16:05;16.55;;;7.00;;
69188;SDS011;56302;52.322;5.926;2022-11-11T00:18:33;18.52;;;7.18;;
69188;SDS011;56302;52.322;5.926;2022-11-11T00:21:17;18.70;;;7.38;;
69188;SDS011;56302;52.322;5.926;2022-11-11T00:24:02;16.13;;;8.20;;
69188;SDS011;56302;52.322;5.926;2022-11-11T00:27:02;16.10;;;7.60;;
69188;SDS011;56302;52.322;5.926;2022-11-11T00:29:29;18.55;;;8.60;;
69188;SDS011;56302;52.322;5.926;2022-11-11T00:31:55;16.03;;;8.47;;
69188;SDS011;56302;52.322;5.926;2022-11-11T00:34:39;16.65;;;8.27;;
69188;SDS011;56302;52.322;5.926;2022-11-11T00:37:04;18.10;;;8.43;;
69188;SDS011;56302;52.322;5.926;2022-11-11T00:39:30;16.52;;;8.63;;
69188;SDS011;56302;52.322;5.926;2022-11-11T00:41:55;19.90;;;9.30;;
69188;SDS011;56302;52.322;5.926;2022-11-11T00:44:21;21.55;;;9.75;;
69188;SDS011;56302;52.322;5.926;2022-11-11T00:46:47;21.17;;;9.70;;
69188;SDS011;56302;52.322;5.926;2022-11-11T00:49:33;19.05;;;9.23;;
69188;SDS011;56302;52.322;5.926;2022-11-11T00:52:17;19.73;;;10.32;;
69188;SDS011;56302;52.322;5.926;2022-11-11T00:54:43;22.97;;;10.60;;
69188;SDS011;56302;52.322;5.926;2022-11-11T00:57:08;22.67;;;10.67;;
69188;SDS011;56302;52.322;5.926;2022-11-11T00:59:34;21.60;;;10.37;;
69188;SDS011;56302;52.322;5.926;2022-11-11T01:01:59;22.15;;;10.80;;
69188;SDS011;56302;52.322;5.926;2022-11-11T01:04:25;24.50;;;11.40;;
69188;SDS011;56302;52.322;5.926;2022-11-11T01:06:50;22.87;;;11.00;;
69188;SDS011;56302;52.322;5.926;2022-11-11T01:09:16;22.08;;;12.07;;
69188;SDS011;56302;52.322;5.926;2022-11-11T01:11:41;22.93;;;11.70;;
69188;SDS011;56302;52.322;5.926;2022-11-11T01:14:07;23.45;;;11.25;;
69188;SDS011;56302;52.322;5.926;2022-11-11T01:16:32;24.83;;;11.73;;
69188;SDS011;56302;52.322;5.926;2022-11-11T01:18:58;23.47;;;12.47;;
69188;SDS011;56302;52.322;5.926;2022-11-11T01:21:24;27.47;;;12.53;;
69188;SDS011;56302;52.322;5.926;2022-11-11T01:23:50;21.73;;;11.07;;
69188;SDS011;56302;52.322;5.926;2022-11-11T01:26:18;23.63;;;12.88;;
69188;SDS011;56302;52.322;5.926;2022-11-11T01:28:44;23.30;;;11.50;;
69188;SDS011;56302;52.322;5.926;2022-11-11T01:31:13;25.77;;;13.35;;
69188;SDS011;56302;52.322;5.926;2022-11-11T01:33:39;25.07;;;12.13;;
69188;SDS011;56302;52.322;5.926;2022-11-11T01:36:13;27.17;;;12.80;;
69188;SDS011;56302;52.322;5.926;2022-11-11T01:38:40;19.83;;;12.57;;
69188;SDS011;56302;52.322;5.926;2022-11-11T01:41:12;25.23;;;13.05;;
69188;SDS011;56302;52.322;5.926;2022-11-11T01:51:56;27.80;;;13.30;;
69188;SDS011;56302;52.322;5.926;2022-11-11T01:57:05;27.57;;;13.03;;
69188;SDS011;56302;52.322;5.926;2022-11-11T01:59:35;22.27;;;12.40;;
69188;SDS011;56302;52.322;5.926;2022-11-11T02:02:10;28.13;;;13.07;;
69188;SDS011;56302;52.322;5.926;2022-11-11T02:04:41;25.05;;;13.15;;
69188;SDS011;56302;52.322;5.926;2022-11-11T02:07:26;25.30;;;14.05;;
69188;SDS011;56302;52.322;5.926;2022-11-11T02:09:54;25.27;;;12.87;;
69188;SDS011;56302;52.322;5.926;2022-11-11T02:12:22;25.65;;;14.07;;
69188;SDS011;56302;52.322;5.926;2022-11-11T02:15:06;28.33;;;13.48;;
69188;SDS011;56302;52.322;5.926;2022-11-11T02:17:32;24.23;;;13.18;;
69188;SDS011;56302;52.322;5.926;2022-11-11T02:19:59;26.37;;;14.40;;
69188;SDS011;56302;52.322;5.926;2022-11-11T02:22:29;28.45;;;13.48;;
69188;SDS011;56302;52.322;5.926;2022-11-11T02:24:55;25.90;;;14.05;;
69188;SDS011;56302;52.322;5.926;2022-11-11T02:27:23;28.52;;;14.77;;
69188;SDS011;56302;52.322;5.926;2022-11-11T02:29:51;30.15;;;13.75;;
69188;SDS011;56302;52.322;5.926;2022-11-11T02:32:20;25.52;;;14.30;;
69188;SDS011;56302;52.322;5.926;2022-11-11T02:34:45;27.48;;;13.93;;
69188;SDS011;56302;52.322;5.926;2022-11-11T02:37:11;25.70;;;14.37;;
69188;SDS011;56302;52.322;5.926;2022-11-11T02:39:42;27.08;;;14.80;;
69188;SDS011;56302;52.322;5.926;2022-11-11T02:42:11;23.05;;;13.98;;
69188;SDS011;56302;52.322;5.926;2022-11-11T02:44:38;29.60;;;15.05;;
69188;SDS011;56302;52.322;5.926;2022-11-11T02:47:04;27.00;;;15.00;;
69188;SDS011;56302;52.322;5.926;2022-11-11T02:49:30;25.43;;;14.33;;
69188;SDS011;56302;52.322;5.926;2022-11-11T02:51:55;27.85;;;14.73;;
69188;SDS011;56302;52.322;5.926;2022-11-11T02:54:21;27.35;;;14.68;;
69188;SDS011;56302;52.322;5.926;2022-11-11T02:56:47;28.53;;;14.40;;
69188;SDS011;56302;52.322;5.926;2022-11-11T02:59:31;27.45;;;13.88;;
69188;SDS011;56302;52.322;5.926;2022-11-11T03:01:57;32.33;;;14.63;;
69188;SDS011;56302;52.322;5.926;2022-11-11T03:04:22;25.73;;;14.60;;
69188;SDS011;56302;52.322;5.926;2022-11-11T03:06:48;25.37;;;14.23;;
69188;SDS011;56302;52.322;5.926;2022-11-11T03:09:13;31.20;;;13.87;;
69188;SDS011;56302;52.322;5.926;2022-11-11T03:11:39;25.25;;;13.68;;
69188;SDS011;56302;52.322;5.926;2022-11-11T03:14:05;27.52;;;14.52;;
69188;SDS011;56302;52.322;5.926;2022-11-11T03:16:32;26.65;;;14.45;;
69188;SDS011;56302;52.322;5.926;2022-11-11T03:19:16;29.08;;;15.30;;
69188;SDS011;56302;52.322;5.926;2022-11-11T03:21:42;26.13;;;13.47;;
69188;SDS011;56302;52.322;5.926;2022-11-11T03:24:07;24.17;;;13.45;;
69188;SDS011;56302;52.322;5.926;2022-11-11T03:26:33;30.03;;;13.53;;
69188;SDS011;56302;52.322;5.926;2022-11-11T03:28:59;26.67;;;14.13;;
69188;SDS011;56302;52.322;5.926;2022-11-11T03:31:24;27.65;;;14.18;;
69188;SDS011;56302;52.322;5.926;2022-11-11T03:33:50;24.17;;;14.43;;
69188;SDS011;56302;52.322;5.926;2022-11-11T03:36:15;26.77;;;14.20;;
69188;SDS011;56302;52.322;5.926;2022-11-11T03:38:41;24.50;;;13.60;;
69188;SDS011;56302;52.322;5.926;2022-11-11T03:41:06;25.37;;;13.40;;
69188;SDS011;56302;52.322;5.926;2022-11-11T03:43:32;23.03;;;13.43;;
69188;SDS011;56302;52.322;5.926;2022-11-11T03:46:00;25.80;;;12.60;;
69188;SDS011;56302;52.322;5.926;2022-11-11T03:48:28;30.13;;;13.45;;
69188;SDS011;56302;52.322;5.926;2022-11-11T03:50:56;24.67;;;13.55;;
69188;SDS011;56302;52.322;5.926;2022-11-11T03:53:22;22.40;;;13.10;;
69188;SDS011;56302;52.322;5.926;2022-11-11T03:55:48;27.73;;;13.43;;
69188;SDS011;56302;52.322;5.926;2022-11-11T03:58:14;25.40;;;13.13;;
69188;SDS011;56302;52.322;5.926;2022-11-11T04:00:40;22.48;;;12.68;;
69188;SDS011;56302;52.322;5.926;2022-11-11T04:03:10;24.83;;;13.27;;
69188;SDS011;56302;52.322;5.926;2022-11-11T04:05:54;23.13;;;11.77;;
69188;SDS011;56302;52.322;5.926;2022-11-11T04:08:39;28.08;;;12.25;;
69188;SDS011;56302;52.322;5.926;2022-11-11T04:11:24;26.67;;;12.83;;
69188;SDS011;56302;52.322;5.926;2022-11-11T04:14:17;22.88;;;12.05;;
69188;SDS011;56302;52.322;5.926;2022-11-11T04:17:01;23.10;;;12.20;;
69188;SDS011;56302;52.322;5.926;2022-11-11T04:19:27;23.67;;;11.67;;
69188;SDS011;56302;52.322;5.926;2022-11-11T04:22:11;23.35;;;12.20;;
69188;SDS011;56302;52.322;5.926;2022-11-11T04:24:36;24.23;;;12.67;;
69188;SDS011;56302;52.322;5.926;2022-11-11T04:27:20;25.08;;;12.00;;
69188;SDS011;56302;52.322;5.926;2022-11-11T04:29:46;25.20;;;13.25;;
69188;SDS011;56302;52.322;5.926;2022-11-11T04:32:16;25.93;;;11.83;;
69188;SDS011;56302;52.322;5.926;2022-11-11T04:35:03;25.23;;;11.85;;
69188;SDS011;56302;52.322;5.926;2022-11-11T04:37:31;23.55;;;12.60;;
69188;SDS011;56302;52.322;5.926;2022-11-11T04:39:58;25.07;;;11.90;;
69188;SDS011;56302;52.322;5.926;2022-11-11T04:42:43;22.08;;;11.95;;
69188;SDS011;56302;52.322;5.926;2022-11-11T04:45:09;22.52;;;11.75;;
69188;SDS011;56302;52.322;5.926;2022-11-11T04:47:55;23.52;;;11.95;;
69188;SDS011;56302;52.322;5.926;2022-11-11T04:50:30;27.25;;;13.25;;
69188;SDS011;56302;52.322;5.926;2022-11-11T04:53:00;26.70;;;13.60;;
69188;SDS011;56302;52.322;5.926;2022-11-11T04:55:27;23.35;;;13.02;;
69188;SDS011;56302;52.322;5.926;2022-11-11T04:58:21;26.33;;;13.00;;
69188;SDS011;56302;52.322;5.926;2022-11-11T05:00:48;26.13;;;12.25;;
69188;SDS011;56302;52.322;5.926;2022-11-11T05:03:14;24.48;;;13.10;;
69188;SDS011;56302;52.322;5.926;2022-11-11T05:08:30;22.08;;;11.73;;
69188;SDS011;56302;52.322;5.926;2022-11-11T05:11:16;23.42;;;12.15;;
69188;SDS011;56302;52.322;5.926;2022-11-11T05:13:41;21.42;;;11.32;;
69188;SDS011;56302;52.322;5.926;2022-11-11T05:16:27;22.92;;;11.60;;
69188;SDS011;56302;52.322;5.926;2022-11-11T05:19:13;23.07;;;11.53;;
69188;SDS011;56302;52.322;5.926;2022-11-11T05:22:04;20.90;;;12.10;;
69188;SDS011;56302;52.322;5.926;2022-11-11T05:24:34;24.67;;;12.10;;
69188;SDS011;56302;52.322;5.926;2022-11-11T05:27:18;23.05;;;12.02;;
69188;SDS011;56302;52.322;5.926;2022-11-11T05:29:45;24.92;;;12.60;;
69188;SDS011;56302;52.322;5.926;2022-11-11T05:32:14;26.03;;;11.80;;
69188;SDS011;56302;52.322;5.926;2022-11-11T05:34:41;23.67;;;11.23;;
69188;SDS011;56302;52.322;5.926;2022-11-11T05:37:06;21.40;;;11.33;;
69188;SDS011;56302;52.322;5.926;2022-11-11T05:39:32;20.90;;;10.90;;
69188;SDS011;56302;52.322;5.926;2022-11-11T05:41:58;18.40;;;11.27;;
69188;SDS011;56302;52.322;5.926;2022-11-11T05:44:23;22.63;;;11.07;;
69188;SDS011;56302;52.322;5.926;2022-11-11T05:46:49;20.98;;;10.68;;
69188;SDS011;56302;52.322;5.926;2022-11-11T05:49:14;25.40;;;11.27;;
69188;SDS011;56302;52.322;5.926;2022-11-11T05:51:40;23.00;;;10.27;;
69188;SDS011;56302;52.322;5.926;2022-11-11T05:54:09;24.58;;;11.00;;
69188;SDS011;56302;52.322;5.926;2022-11-11T05:56:35;22.45;;;11.50;;
69188;SDS011;56302;52.322;5.926;2022-11-11T05:59:01;19.03;;;9.67;;
69188;SDS011;56302;52.322;5.926;2022-11-11T06:01:27;20.05;;;9.70;;
69188;SDS011;56302;52.322;5.926;2022-11-11T06:03:52;22.27;;;10.67;;
69188;SDS011;56302;52.322;5.926;2022-11-11T06:06:18;23.88;;;11.43;;
69188;SDS011;56302;52.322;5.926;2022-11-11T06:08:43;23.73;;;10.27;;
69188;SDS011;56302;52.322;5.926;2022-11-11T06:11:09;15.90;;;9.33;;
69188;SDS011;56302;52.322;5.926;2022-11-11T06:13:34;19.08;;;10.23;;
69188;SDS011;56302;52.322;5.926;2022-11-11T06:16:00;21.50;;;10.05;;
69188;SDS011;56302;52.322;5.926;2022-11-11T06:18:26;19.33;;;10.60;;
69188;SDS011;56302;52.322;5.926;2022-11-11T06:20:52;18.17;;;9.53;;
69188;SDS011;56302;52.322;5.926;2022-11-11T06:23:19;20.60;;;10.98;;
69188;SDS011;56302;52.322;5.926;2022-11-11T06:25:45;21.37;;;10.37;;
69188;SDS011;56302;52.322;5.926;2022-11-11T06:28:29;18.80;;;9.60;;
69188;SDS011;56302;52.322;5.926;2022-11-11T06:30:54;18.60;;;9.50;;
69188;SDS011;56302;52.322;5.926;2022-11-11T06:33:20;19.92;;;10.45;;
69188;SDS011;56302;52.322;5.926;2022-11-11T06:35:46;21.63;;;10.63;;
69188;SDS011;56302;52.322;5.926;2022-11-11T06:38:12;21.33;;;10.48;;
69188;SDS011;56302;52.322;5.926;2022-11-11T06:40:38;20.47;;;10.10;;
69188;SDS011;56302;52.322;5.926;2022-11-11T06:43:05;23.08;;;10.15;;
69188;SDS011;56302;52.322;5.926;2022-11-11T06:45:31;18.10;;;9.70;;
69188;SDS011;56302;52.322;5.926;2022-11-11T06:47:58;17.92;;;10.02;;
69188;SDS011;56302;52.322;5.926;2022-11-11T06:50:23;18.93;;;10.17;;
69188;SDS011;56302;52.322;5.926;2022-11-11T06:52:49;18.73;;;9.85;;
69188;SDS011;56302;52.322;5.926;2022-11-11T06:55:15;18.67;;;9.48;;
69188;SDS011;56302;52.322;5.926;2022-11-11T06:57:40;19.80;;;9.67;;
69188;SDS011;56302;52.322;5.926;2022-11-11T07:00:06;19.63;;;10.47;;
69188;SDS011;56302;52.322;5.926;2022-11-11T07:02:32;17.08;;;9.60;;
69188;SDS011;56302;52.322;5.926;2022-11-11T07:04:58;20.13;;;9.37;;
69188;SDS011;56302;52.322;5.926;2022-11-11T07:07:24;17.73;;;8.98;;
69188;SDS011;56302;52.322;5.926;2022-11-11T07:09:49;20.40;;;9.88;;
69188;SDS011;56302;52.322;5.926;2022-11-11T07:12:15;20.60;;;10.03;;
69188;SDS011;56302;52.322;5.926;2022-11-11T07:14:41;20.88;;;9.40;;
69188;SDS011;56302;52.322;5.926;2022-11-11T07:17:07;18.23;;;9.60;;
69188;SDS011;56302;52.322;5.926;2022-11-11T07:19:32;24.95;;;10.23;;
69188;SDS011;56302;52.322;5.926;2022-11-11T07:21:58;23.17;;;9.32;;
69188;SDS011;56302;52.322;5.926;2022-11-11T07:24:23;16.83;;;10.00;;
69188;SDS011;56302;52.322;5.926;2022-11-11T07:26:49;17.23;;;9.50;;
69188;SDS011;56302;52.322;5.926;2022-11-11T07:29:14;21.23;;;9.45;;
69188;SDS011;56302;52.322;5.926;2022-11-11T07:31:40;17.15;;;9.05;;
69188;SDS011;56302;52.322;5.926;2022-11-11T07:34:06;22.75;;;9.68;;
69188;SDS011;56302;52.322;5.926;2022-11-11T07:36:32;18.73;;;9.18;;
69188;SDS011;56302;52.322;5.926;2022-11-11T07:38:58;17.37;;;8.47;;
69188;SDS011;56302;52.322;5.926;2022-11-11T07:41:23;17.23;;;8.95;;
69188;SDS011;56302;52.322;5.926;2022-11-11T07:43:49;18.23;;;8.70;;
69188;SDS011;56302;52.322;5.926;2022-11-11T07:46:14;19.43;;;9.13;;
69188;SDS011;56302;52.322;5.926;2022-11-11T07:48:40;18.45;;;9.07;;
69188;SDS011;56302;52.322;5.926;2022-11-11T07:51:05;17.67;;;9.20;;
69188;SDS011;56302;52.322;5.926;2022-11-11T07:53:31;19.23;;;9.67;;
69188;SDS011;56302;52.322;5.926;2022-11-11T07:55:57;18.52;;;9.15;;
69188;SDS011;56302;52.322;5.926;2022-11-11T07:58:22;18.77;;;9.48;;
69188;SDS011;56302;52.322;5.926;2022-11-11T08:00:48;19.85;;;9.82;;
69188;SDS011;56302;52.322;5.926;2022-11-11T08:03:13;18.87;;;9.73;;
69188;SDS011;56302;52.322;5.926;2022-11-11T08:05:39;17.50;;;9.10;;
69188;SDS011;56302;52.322;5.926;2022-11-11T08:08:05;19.52;;;8.40;;
69188;SDS011;56302;52.322;5.926;2022-11-11T08:10:32;17.00;;;8.93;;
69188;SDS011;56302;52.322;5.926;2022-11-11T08:12:58;17.85;;;9.10;;
69188;SDS011;56302;52.322;5.926;2022-11-11T08:15:42;18.13;;;9.07;;
69188;SDS011;56302;52.322;5.926;2022-11-11T08:18:08;16.50;;;9.10;;
69188;SDS011;56302;52.322;5.926;2022-11-11T08:20:34;18.70;;;8.95;;
69188;SDS011;56302;52.322;5.926;2022-11-11T08:22:59;18.13;;;9.27;;
69188;SDS011;56302;52.322;5.926;2022-11-11T08:25:28;15.97;;;8.63;;
69188;SDS011;56302;52.322;5.926;2022-11-11T08:27:58;20.95;;;9.70;;
69188;SDS011;56302;52.322;5.926;2022-11-11T08:30:24;16.10;;;9.13;;
69188;SDS011;56302;52.322;5.926;2022-11-11T08:33:00;18.27;;;9.18;;
69188;SDS011;56302;52.322;5.926;2022-11-11T08:35:27;21.83;;;9.50;;
69188;SDS011;56302;52.322;5.926;2022-11-11T08:37:53;17.77;;;8.80;;
69188;SDS011;56302;52.322;5.926;2022-11-11T08:40:19;15.38;;;8.73;;
69188;SDS011;56302;52.322;5.926;2022-11-11T08:42:45;17.45;;;8.55;;
69188;SDS011;56302;52.322;5.926;2022-11-11T08:45:11;19.00;;;9.70;;
69188;SDS011;56302;52.322;5.926;2022-11-11T08:47:37;15.35;;;9.00;;
69188;SDS011;56302;52.322;5.926;2022-11-11T08:50:05;15.95;;;8.32;;
69188;SDS011;56302;52.322;5.926;2022-11-11T08:52:31;20.00;;;8.60;;
69188;SDS011;56302;52.322;5.926;2022-11-11T08:54:57;18.08;;;9.35;;
69188;SDS011;56302;52.322;5.926;2022-11-11T08:57:24;17.33;;;9.48;;
69188;SDS011;56302;52.322;5.926;2022-11-11T08:59:50;16.37;;;8.70;;
69188;SDS011;56302;52.322;5.926;2022-11-11T09:02:15;17.35;;;8.25;;
69188;SDS011;56302;52.322;5.926;2022-11-11T09:04:41;16.67;;;8.27;;
69188;SDS011;56302;52.322;5.926;2022-11-11T09:07:07;15.32;;;7.82;;
69188;SDS011;56302;52.322;5.926;2022-11-11T09:09:33;15.90;;;7.60;;
69188;SDS011;56302;52.322;5.926;2022-11-11T09:11:59;16.45;;;7.88;;
69188;SDS011;56302;52.322;5.926;2022-11-11T09:14:25;18.10;;;8.13;;
69188;SDS011;56302;52.322;5.926;2022-11-11T09:16:50;14.40;;;7.13;;
69188;SDS011;56302;52.322;5.926;2022-11-11T09:19:16;15.93;;;7.90;;
69188;SDS011;56302;52.322;5.926;2022-11-11T09:21:41;18.13;;;8.10;;
69188;SDS011;56302;52.322;5.926;2022-11-11T09:24:07;13.55;;;7.53;;
69188;SDS011;56302;52.322;5.926;2022-11-11T09:26:33;17.70;;;8.30;;
69188;SDS011;56302;52.322;5.926;2022-11-11T09:28:58;15.55;;;7.65;;
69188;SDS011;56302;52.322;5.926;2022-11-11T09:31:24;14.13;;;7.17;;
69188;SDS011;56302;52.322;5.926;2022-11-11T09:33:49;13.93;;;8.23;;
69188;SDS011;56302;52.322;5.926;2022-11-11T09:36:15;14.77;;;7.63;;
69188;SDS011;56302;52.322;5.926;2022-11-11T09:38:41;15.85;;;8.18;;
69188;SDS011;56302;52.322;5.926;2022-11-11T09:43:55;15.10;;;7.82;;
69188;SDS011;56302;52.322;5.926;2022-11-11T09:46:24;14.77;;;8.30;;
69188;SDS011;56302;52.322;5.926;2022-11-11T09:51:40;15.68;;;7.93;;
69188;SDS011;56302;52.322;5.926;2022-11-11T09:54:11;16.23;;;8.70;;
69188;SDS011;56302;52.322;5.926;2022-11-11T09:56:43;15.90;;;7.70;;
69188;SDS011;56302;52.322;5.926;2022-11-11T09:59:16;16.02;;;7.75;;
69188;SDS011;56302;52.322;5.926;2022-11-11T10:01:49;13.82;;;8.00;;
69188;SDS011;56302;52.322;5.926;2022-11-11T10:06:56;16.05;;;7.55;;
69188;SDS011;56302;52.322;5.926;2022-11-11T10:09:33;15.98;;;7.57;;
69188;SDS011;56302;52.322;5.926;2022-11-11T10:12:11;16.40;;;8.23;;
69188;SDS011;56302;52.322;5.926;2022-11-11T10:14:41;14.88;;;7.95;;
69188;SDS011;56302;52.322;5.926;2022-11-11T10:17:14;13.00;;;7.43;;
69188;SDS011;56302;52.322;5.926;2022-11-11T10:20:18;13.63;;;7.47;;
69188;SDS011;56302;52.322;5.926;2022-11-11T10:22:50;14.95;;;7.68;;
69188;SDS011;56302;52.322;5.926;2022-11-11T10:25:25;17.40;;;8.02;;
69188;SDS011;56302;52.322;5.926;2022-11-11T10:27:52;15.68;;;8.05;;
69188;SDS011;56302;52.322;5.926;2022-11-11T10:30:31;16.98;;;8.23;;
69188;SDS011;56302;52.322;5.926;2022-11-11T10:35:26;13.90;;;7.57;;
69188;SDS011;56302;52.322;5.926;2022-11-11T10:43:46;14.55;;;7.25;;
69188;SDS011;56302;52.322;5.926;2022-11-11T10:46:20;14.52;;;8.23;;
69188;SDS011;56302;52.322;5.926;2022-11-11T10:48:59;15.77;;;8.50;;
69188;SDS011;56302;52.322;5.926;2022-11-11T10:51:37;14.45;;;7.05;;
69188;SDS011;56302;52.322;5.926;2022-11-11T10:54:12;13.90;;;7.45;;
69188;SDS011;56302;52.322;5.926;2022-11-11T10:56:51;15.75;;;7.72;;
69188;SDS011;56302;52.322;5.926;2022-11-11T10:59:53;16.73;;;7.63;;
69188;SDS011;56302;52.322;5.926;2022-11-11T11:02:30;18.30;;;7.57;;
69188;SDS011;56302;52.322;5.926;2022-11-11T11:05:12;13.27;;;7.55;;
69188;SDS011;56302;52.322;5.926;2022-11-11T11:07:46;15.50;;;7.28;;
69188;SDS011;56302;52.322;5.926;2022-11-11T11:10:20;15.52;;;7.72;;
69188;SDS011;56302;52.322;5.926;2022-11-11T11:15:30;12.70;;;6.60;;
69188;SDS011;56302;52.322;5.926;2022-11-11T11:18:00;12.20;;;7.03;;
69188;SDS011;56302;52.322;5.926;2022-11-11T11:20:30;14.93;;;7.40;;
69188;SDS011;56302;52.322;5.926;2022-11-11T11:22:56;11.90;;;7.13;;
69188;SDS011;56302;52.322;5.926;2022-11-11T11:25:26;13.55;;;6.80;;
69188;SDS011;56302;52.322;5.926;2022-11-11T11:28:18;15.30;;;6.72;;
69188;SDS011;56302;52.322;5.926;2022-11-11T11:30:56;17.33;;;7.18;;
69188;SDS011;56302;52.322;5.926;2022-11-11T11:33:49;13.13;;;6.72;;
69188;SDS011;56302;52.322;5.926;2022-11-11T11:36:18;10.48;;;6.38;;
69188;SDS011;56302;52.322;5.926;2022-11-11T11:38:45;12.02;;;6.80;;
69188;SDS011;56302;52.322;5.926;2022-11-11T11:41:15;12.32;;;6.30;;
69188;SDS011;56302;52.322;5.926;2022-11-11T11:43:42;15.25;;;6.30;;
69188;SDS011;56302;52.322;5.926;2022-11-11T11:46:18;12.90;;;6.80;;
69188;SDS011;56302;52.322;5.926;2022-11-11T11:52:28;12.80;;;6.10;;
69188;SDS011;56302;52.322;5.926;2022-11-11T11:55:14;12.65;;;5.75;;
69188;SDS011;56302;52.322;5.926;2022-11-11T12:00:23;14.13;;;6.03;;
69188;SDS011;56302;52.322;5.926;2022-11-11T12:03:11;13.10;;;6.50;;
69188;SDS011;56302;52.322;5.926;2022-11-11T12:05:55;9.85;;;5.80;;
69188;SDS011;56302;52.322;5.926;2022-11-11T12:11:36;11.27;;;6.53;;
69188;SDS011;56302;52.322;5.926;2022-11-11T12:14:19;11.25;;;5.53;;
69188;SDS011;56302;52.322;5.926;2022-11-11T12:16:52;10.63;;;5.65;;
69188;SDS011;56302;52.322;5.926;2022-11-11T12:24:37;12.40;;;5.27;;
69188;SDS011;56302;52.322;5.926;2022-11-11T12:30:19;14.32;;;5.95;;
69188;SDS011;56302;52.322;5.926;2022-11-11T12:39:05;13.68;;;5.80;;
69188;SDS011;56302;52.322;5.926;2022-11-11T12:42:04;10.77;;;6.13;;
69188;SDS011;56302;52.322;5.926;2022-11-11T12:47:47;12.20;;;4.97;;
69188;SDS011;56302;52.322;5.926;2022-11-11T13:03:55;20.27;;;6.18;;
69188;SDS011;56302;52.322;5.926;2022-11-11T13:06:38;10.60;;;5.20;;
69188;SDS011;56302;52.322;5.926;2022-11-11T13:11:46;14.00;;;6.28;;
69188;SDS011;56302;52.322;5.926;2022-11-11T13:16:59;14.55;;;5.50;;
69188;SDS011;56302;52.322;5.926;2022-11-11T13:19:39;11.77;;;5.55;;
69188;SDS011;56302;52.322;5.926;2022-11-11T13:24:43;13.33;;;5.90;;
69188;SDS011;56302;52.322;5.926;2022-11-11T13:27:19;12.95;;;6.07;;
69188;SDS011;56302;52.322;5.926;2022-11-11T13:30:04;11.40;;;5.53;;
69188;SDS011;56302;52.322;5.926;2022-11-11T13:32:51;12.50;;;5.50;;
69188;SDS011;56302;52.322;5.926;2022-11-11T13:35:30;11.90;;;6.20;;
69188;SDS011;56302;52.322;5.926;2022-11-11T13:37:59;11.77;;;5.45;;
69188;SDS011;56302;52.322;5.926;2022-11-11T13:43:22;10.37;;;5.40;;
69188;SDS011;56302;52.322;5.926;2022-11-11T13:45:53;11.90;;;5.85;;
69188;SDS011;56302;52.322;5.926;2022-11-11T13:48:27;13.48;;;6.20;;
69188;SDS011;56302;52.322;5.926;2022-11-11T13:53:49;11.27;;;5.43;;
69188;SDS011;56302;52.322;5.926;2022-11-11T13:56:22;14.00;;;5.50;;
69188;SDS011;56302;52.322;5.926;2022-11-11T13:58:48;11.73;;;5.13;;
69188;SDS011;56302;52.322;5.926;2022-11-11T14:01:14;14.90;;;5.80;;
69188;SDS011;56302;52.322;5.926;2022-11-11T14:13:54;9.70;;;5.20;;
69188;SDS011;56302;52.322;5.926;2022-11-11T14:21:47;12.95;;;5.20;;
69188;SDS011;56302;52.322;5.926;2022-11-11T14:29:45;17.10;;;6.70;;
69188;SDS011;56302;52.322;5.926;2022-11-11T14:32:28;11.98;;;5.13;;
69188;SDS011;56302;52.322;5.926;2022-11-11T14:40:52;12.60;;;5.70;;
69188;SDS011;56302;52.322;5.926;2022-11-11T14:46:05;9.63;;;5.07;;
69188;SDS011;56302;52.322;5.926;2022-11-11T14:54:03;11.25;;;5.18;;
69188;SDS011;56302;52.322;5.926;2022-11-11T14:56:30;13.23;;;5.10;;
69188;SDS011;56302;52.322;5.926;2022-11-11T14:58:57;10.95;;;5.15;;
69188;SDS011;56302;52.322;5.926;2022-11-11T15:01:31;11.82;;;5.57;;
69188;SDS011;56302;52.322;5.926;2022-11-11T15:03:59;12.60;;;5.20;;
69188;SDS011;56302;52.322;5.926;2022-11-11T15:06:51;12.35;;;4.90;;
69188;SDS011;56302;52.322;5.926;2022-11-11T15:09:40;9.60;;;4.85;;
69188;SDS011;56302;52.322;5.926;2022-11-11T15:12:44;10.68;;;4.70;;
69188;SDS011;56302;52.322;5.926;2022-11-11T15:18:32;13.63;;;4.75;;
69188;SDS011;56302;52.322;5.926;2022-11-11T15:21:28;9.50;;;4.00;;
69188;SDS011;56302;52.322;5.926;2022-11-11T15:24:06;14.90;;;4.72;;
69188;SDS011;56302;52.322;5.926;2022-11-11T15:26:57;10.98;;;4.43;;
69188;SDS011;56302;52.322;5.926;2022-11-11T15:30:00;11.20;;;4.60;;
69188;SDS011;56302;52.322;5.926;2022-11-11T15:35:40;11.60;;;4.40;;
69188;SDS011;56302;52.322;5.926;2022-11-11T15:38:14;8.65;;;4.00;;
69188;SDS011;56302;52.322;5.926;2022-11-11T15:40:45;11.82;;;5.00;;
69188;SDS011;56302;52.322;5.926;2022-11-11T15:43:19;12.07;;;4.22;;
69188;SDS011;56302;52.322;5.926;2022-11-11T15:46:12;12.55;;;4.55;;
69188;SDS011;56302;52.322;5.926;2022-11-11T15:48:45;9.55;;;4.05;;
69188;SDS011;56302;52.322;5.926;2022-11-11T15:51:53;8.73;;;4.18;;
69188;SDS011;56302;52.322;5.926;2022-11-11T15:56:40;16.85;;;4.22;;
69188;SDS011;56302;52.322;5.926;2022-11-11T15:59:16;16.05;;;4.30;;
69188;SDS011;56302;52.322;5.926;2022-11-11T16:01:49;11.80;;;4.22;;
69188;SDS011;56302;52.322;5.926;2022-11-11T16:04:17;9.55;;;3.85;;
69188;SDS011;56302;52.322;5.926;2022-11-11T16:06:45;11.93;;;4.32;;
69188;SDS011;56302;52.322;5.926;2022-11-11T16:09:12;11.75;;;4.32;;
69188;SDS011;56302;52.322;5.926;2022-11-11T16:11:40;9.13;;;4.30;;
69188;SDS011;56302;52.322;5.926;2022-11-11T16:14:07;10.35;;;4.70;;
69188;SDS011;56302;52.322;5.926;2022-11-11T16:16:43;8.57;;;4.35;;
69188;SDS011;56302;52.322;5.926;2022-11-11T16:22:08;10.18;;;3.47;;
69188;SDS011;56302;52.322;5.926;2022-11-11T16:24:36;10.52;;;3.60;;
69188;SDS011;56302;52.322;5.926;2022-11-11T16:27:04;10.13;;;4.18;;
69188;SDS011;56302;52.322;5.926;2022-11-11T16:29:38;10.77;;;4.15;;
69188;SDS011;56302;52.322;5.926;2022-11-11T16:32:18;8.75;;;3.45;;
69188;SDS011;56302;52.322;5.926;2022-11-11T16:34:56;7.78;;;3.90;;
69188;SDS011;56302;52.322;5.926;2022-11-11T16:37:22;12.63;;;4.97;;
69188;SDS011;56302;52.322;5.926;2022-11-11T16:39:47;10.97;;;4.40;;
69188;SDS011;56302;52.322;5.926;2022-11-11T16:53:26;8.95;;;3.50;;
69188;SDS011;56302;52.322;5.926;2022-11-11T16:55:57;8.45;;;3.67;;
69188;SDS011;56302;52.322;5.926;2022-11-11T16:58:23;6.00;;;3.38;;
69188;SDS011;56302;52.322;5.926;2022-11-11T17:00:49;6.25;;;2.83;;
69188;SDS011;56302;52.322;5.926;2022-11-11T17:03:27;6.18;;;3.17;;
69188;SDS011;56302;52.322;5.926;2022-11-11T17:05:57;5.50;;;2.83;;
69188;SDS011;56302;52.322;5.926;2022-11-11T17:08:41;8.23;;;3.03;;
69188;SDS011;56302;52.322;5.926;2022-11-11T17:11:09;7.72;;;2.58;;
69188;SDS011;56302;52.322;5.926;2022-11-11T17:13:36;7.28;;;3.20;;
69188;SDS011;56302;52.322;5.926;2022-11-11T17:16:02;8.20;;;3.10;;
69188;SDS011;56302;52.322;5.926;2022-11-11T17:18:35;6.90;;;3.08;;